Time;durP1;ratioP1;P1;durP2;ratioP2;P2;SDS_P1;SDS_P2;PMS_P1;PMS_P2;Temp;Humidity;BMP_temperature;BMP_pressure;BME280_temperature;BME280_humidity;BME280_pressure;Samples;Min_cycle;Max_cycle;Signal;HPM_P1;HPM_P2
2023/01/10 00:02:01;;;;;;;22.23;10.70;;;7.80;95.60;;;;;;5026094;28;20671;-81
2023/01/10 00:04:31;;;;;;;20.60;9.23;;;7.80;95.80;;;;;;5030892;28;20319;-81
2023/01/10 00:06:59;;;;;;;20.73;10.67;;;7.80;95.80;;;;;;5028931;28;20734;-81
2023/01/10 00:09:27;;;;;;;21.00;9.30;;;7.70;96.00;;;;;;5032294;28;20276;-81
2023/01/10 00:14:41;;;;;;;22.17;10.73;;;7.70;96.40;;;;;;5024045;28;20218;-81
2023/01/10 00:17:10;;;;;;;20.03;9.63;;;7.60;96.50;;;;;;5031749;28;20208;-81
2023/01/10 00:19:39;;;;;;;28.50;12.55;;;7.60;96.40;;;;;;5022118;28;20443;-81
2023/01/10 00:22:21;;;;;;;25.67;11.77;;;7.60;96.60;;;;;;5025323;28;20253;-81
2023/01/10 00:24:50;;;;;;;24.63;10.80;;;7.60;96.60;;;;;;5025725;28;20250;-81
2023/01/10 00:27:21;;;;;;;28.40;10.47;;;7.60;96.50;;;;;;5029630;28;20199;-82
2023/01/10 00:29:51;;;;;;;27.70;10.73;;;7.50;96.60;;;;;;5032121;28;20208;-81
2023/01/10 00:32:20;;;;;;;26.97;10.87;;;7.50;96.70;;;;;;5031030;28;20261;-82
2023/01/10 00:34:49;;;;;;;26.17;11.53;;;7.60;96.70;;;;;;5029415;28;20207;-82
2023/01/10 00:37:18;;;;;;;23.20;10.80;;;7.60;96.80;;;;;;5027142;28;20203;-81
2023/01/10 00:39:46;;;;;;;26.53;9.47;;;7.60;96.70;;;;;;5024909;28;20675;-81
2023/01/10 00:45:00;;;;;;;24.97;9.87;;;7.60;96.80;;;;;;5027718;28;20211;-82
2023/01/10 00:47:29;;;;;;;23.90;9.83;;;7.60;96.80;;;;;;5028833;28;20244;-82
2023/01/10 00:49:58;;;;;;;24.67;10.53;;;7.60;96.70;;;;;;5031972;28;20234;-81
2023/01/10 00:52:27;;;;;;;21.93;9.53;;;7.60;96.80;;;;;;5030352;28;20203;-82
2023/01/10 00:54:55;;;;;;;21.33;9.60;;;7.60;96.60;;;;;;5030842;28;20619;-82
2023/01/10 00:57:26;;;;;;;24.47;9.57;;;7.70;96.60;;;;;;5030032;28;20288;-82
2023/01/10 00:59:54;;;;;;;24.03;10.03;;;7.60;96.80;;;;;;5024225;28;20250;-81
2023/01/10 01:02:22;;;;;;;25.57;10.33;;;7.60;96.80;;;;;;5023740;28;20215;-81
2023/01/10 01:04:51;;;;;;;27.37;10.20;;;7.60;96.80;;;;;;5029220;28;20594;-80
2023/01/10 01:07:21;;;;;;;23.20;10.37;;;7.50;97.00;;;;;;5030523;28;20254;-81
2023/01/10 01:12:35;;;;;;;22.77;10.43;;;7.60;96.90;;;;;;5029394;28;20211;-82
2023/01/10 01:15:03;;;;;;;24.30;9.83;;;7.60;96.90;;;;;;5029381;28;20204;-81
2023/01/10 01:17:32;;;;;;;24.30;9.53;;;7.60;96.90;;;;;;5030949;28;20723;-81
2023/01/10 01:20:00;;;;;;;19.27;9.73;;;7.50;97.40;;;;;;5028049;28;20204;-82
2023/01/10 01:22:30;;;;;;;23.10;9.87;;;7.60;97.00;;;;;;5028493;28;20203;-82
2023/01/10 01:24:58;;;;;;;26.67;11.10;;;7.50;97.00;;;;;;5027490;28;20200;-81
2023/01/10 01:27:26;;;;;;;23.37;9.07;;;7.60;97.00;;;;;;5032076;28;20257;-81
2023/01/10 01:29:55;;;;;;;21.93;9.23;;;7.60;96.90;;;;;;5029186;28;20216;-81
2023/01/10 01:32:29;;;;;;;27.53;11.30;;;7.60;96.90;;;;;;5022113;28;20207;-82
2023/01/10 01:34:57;;;;;;;26.40;11.50;;;7.60;97.10;;;;;;5031465;28;20195;-82
2023/01/10 01:37:25;;;;;;;29.47;12.10;;;7.60;96.90;;;;;;5026713;28;20208;-82
2023/01/10 01:39:55;;;;;;;29.70;10.80;;;7.70;96.90;;;;;;5024921;28;20196;-81
2023/01/10 01:42:26;;;;;;;21.43;9.23;;;7.70;96.90;;;;;;5027116;28;20200;-81
2023/01/10 01:45:27;;;;;;;24.73;9.67;;;7.70;96.90;;;;;;5028182;28;20568;-81
2023/01/10 01:47:58;;;;;;;24.70;10.83;;;7.70;96.90;;;;;;4994095;28;20211;-81
2023/01/10 01:50:32;;;;;;;24.57;11.37;;;7.60;97.00;;;;;;5008029;28;20205;-81
2023/01/10 01:53:04;;;;;;;24.93;10.50;;;7.60;97.10;;;;;;5005985;28;20195;-81
2023/01/10 01:55:36;;;;;;;21.80;10.10;;;7.60;97.10;;;;;;5005033;28;20196;-82
2023/01/10 01:58:09;;;;;;;24.50;11.63;;;7.60;97.10;;;;;;5007101;28;20224;-82
2023/01/10 02:00:38;;;;;;;28.07;11.03;;;7.60;97.10;;;;;;5002419;28;20192;-82
2023/01/10 02:03:06;;;;;;;23.80;10.60;;;7.60;97.20;;;;;;5002804;28;20251;-81
2023/01/10 02:05:37;;;;;;;31.80;11.43;;;7.60;97.20;;;;;;5005076;28;20208;-81
2023/01/10 02:08:06;;;;;;;25.17;11.60;;;7.60;97.20;;;;;;5011843;28;20200;-81
2023/01/10 02:10:42;;;;;;;29.97;11.87;;;7.60;97.10;;;;;;5006896;28;20238;-82
2023/01/10 02:13:14;;;;;;;26.20;10.90;;;7.70;97.10;;;;;;5010875;28;20200;-82
2023/01/10 02:15:42;;;;;;;25.40;11.40;;;7.70;97.10;;;;;;5005206;28;20204;-82
2023/01/10 02:18:11;;;;;;;33.17;12.03;;;7.70;97.00;;;;;;5010170;28;20211;-81
2023/01/10 02:20:54;;;;;;;27.97;12.23;;;7.70;97.20;;;;;;5005044;28;20200;-82
2023/01/10 02:24:07;;;;;;;24.77;11.83;;;7.80;97.10;;;;;;5000937;28;20200;-82
2023/01/10 02:27:03;;;;;;;31.57;12.70;;;7.70;97.10;;;;;;4999323;28;20200;-81
2023/01/10 02:30:17;;;;;;;34.40;13.67;;;7.70;97.20;;;;;;5005776;28;20211;-82
2023/01/10 02:32:50;;;;;;;28.83;12.00;;;7.80;97.20;;;;;;5007523;28;20242;-82
2023/01/10 02:35:56;;;;;;;29.50;12.50;;;7.80;97.30;;;;;;5003851;28;20204;-82
2023/01/10 02:38:34;;;;;;;35.50;13.77;;;7.80;97.30;;;;;;5008433;28;20204;-81
2023/01/10 02:41:14;;;;;;;30.47;11.93;;;7.80;97.40;;;;;;5009065;28;20192;-81
2023/01/10 02:43:48;;;;;;;27.57;11.47;;;7.80;97.50;;;;;;5007036;28;20206;-81
2023/01/10 02:46:24;;;;;;;28.87;12.37;;;7.80;97.50;;;;;;5005459;28;20224;-81
2023/01/10 02:48:54;;;;;;;29.67;12.83;;;7.80;97.50;;;;;;5007790;28;20202;-81
2023/01/10 02:51:25;;;;;;;31.70;12.50;;;7.80;97.50;;;;;;5001587;28;20216;-81
2023/01/10 02:53:59;;;;;;;30.63;13.40;;;7.90;97.40;;;;;;5002581;28;20192;-81
2023/01/10 02:56:53;;;;;;;35.97;13.23;;;7.80;97.50;;;;;;5006165;28;20734;-82
2023/01/10 02:59:50;;;;;;;29.77;13.07;;;7.80;97.60;;;;;;5005312;28;20188;-82
2023/01/10 03:02:30;;;;;;;36.77;13.70;;;7.80;97.80;;;;;;5004085;28;20243;-82
2023/01/10 03:05:09;;;;;;;31.07;13.00;;;7.80;97.70;;;;;;5003276;28;20188;-81
2023/01/10 03:07:43;;;;;;;29.80;12.50;;;7.80;97.70;;;;;;5003261;28;20236;-81
2023/01/10 03:10:18;;;;;;;33.37;13.93;;;7.80;97.60;;;;;;5005482;28;20228;-81
2023/01/10 03:12:55;;;;;;;35.45;15.95;;;7.80;97.70;;;;;;5001713;28;20913;-80
2023/01/10 03:15:27;;;;;;;30.17;13.40;;;7.80;97.90;;;;;;5005440;28;20192;-81
2023/01/10 03:17:59;;;;;;;32.47;13.03;;;7.90;97.90;;;;;;5003511;28;20196;-81
2023/01/10 03:20:31;;;;;;;31.07;13.00;;;7.90;98.10;;;;;;5007483;28;20681;-81
2023/01/10 03:23:02;;;;;;;31.83;13.30;;;7.90;97.70;;;;;;5003312;28;20712;-81
2023/01/10 03:25:35;;;;;;;31.43;13.80;;;7.90;97.60;;;;;;5005638;28;20209;-80
2023/01/10 03:28:08;;;;;;;29.67;13.47;;;7.90;97.50;;;;;;5007843;28;20259;-80
2023/01/10 03:30:42;;;;;;;26.90;11.27;;;7.80;97.60;;;;;;5006493;28;20823;-81
2023/01/10 03:33:12;;;;;;;25.93;12.03;;;7.90;97.50;;;;;;5011746;28;20735;-82
2023/01/10 03:35:53;;;;;;;25.33;12.13;;;7.90;97.50;;;;;;5007201;28;20204;-82
2023/01/10 03:38:27;;;;;;;29.13;12.60;;;7.90;97.50;;;;;;5009737;28;20661;-80
2023/01/10 03:40:59;;;;;;;32.17;11.83;;;7.90;97.40;;;;;;5010727;28;20192;-81
2023/01/10 03:46:30;;;;;;;35.83;16.42;;;7.90;97.50;;;;;;5005939;28;20490;-81
2023/01/10 03:49:00;;;;;;;36.40;14.60;;;7.90;97.80;;;;;;5010382;28;20196;-81
2023/01/10 03:51:30;;;;;;;34.33;13.43;;;7.90;97.70;;;;;;5011778;28;20270;-80
2023/01/10 03:54:01;;;;;;;30.93;13.47;;;7.90;97.70;;;;;;5012886;28;20200;-80
2023/01/10 03:56:29;;;;;;;33.83;14.53;;;7.90;97.70;;;;;;5010409;28;20479;-81
2023/01/10 03:58:58;;;;;;;30.77;12.37;;;7.90;97.70;;;;;;5012758;28;20254;-80
2023/01/10 04:01:27;;;;;;;30.10;13.47;;;7.90;97.70;;;;;;5008719;28;20278;-80
2023/01/10 04:03:55;;;;;;;27.40;12.10;;;8.00;97.60;;;;;;5005646;28;20220;-78
2023/01/10 04:06:23;;;;;;;28.20;12.60;;;8.00;97.50;;;;;;5007342;28;20221;-81
2023/01/10 04:08:53;;;;;;;31.30;14.03;;;8.10;97.80;;;;;;5008788;28;20232;-81
2023/01/10 04:11:21;;;;;;;28.60;12.87;;;8.10;97.40;;;;;;5012085;28;20747;-79
2023/01/10 04:13:50;;;;;;;26.77;11.40;;;8.10;97.40;;;;;;5012606;28;20196;-81
2023/01/10 04:16:19;;;;;;;32.50;13.30;;;8.20;97.40;;;;;;5011505;28;20201;-81
2023/01/10 04:18:47;;;;;;;30.60;13.20;;;8.10;97.30;;;;;;5005457;28;20197;-81
2023/01/10 04:21:16;;;;;;;30.00;13.27;;;8.20;97.30;;;;;;5010827;28;20319;-81
2023/01/10 04:23:44;;;;;;;30.37;12.87;;;8.20;97.30;;;;;;5010297;28;20204;-80
2023/01/10 04:26:14;;;;;;;32.73;12.73;;;8.20;97.30;;;;;;5008820;28;20624;-80
2023/01/10 04:28:42;;;;;;;28.03;12.33;;;8.20;97.40;;;;;;5007510;28;20208;-80
2023/01/10 04:31:10;;;;;;;30.03;12.10;;;8.20;97.30;;;;;;5009109;28;20224;-81
2023/01/10 04:33:40;;;;;;;31.30;13.20;;;8.20;97.20;;;;;;5007831;28;20197;-80
2023/01/10 04:36:08;;;;;;;29.83;12.87;;;8.30;97.20;;;;;;5010326;28;20215;-80
2023/01/10 04:38:37;;;;;;;31.00;13.13;;;8.30;97.20;;;;;;5009764;28;20246;-80
2023/01/10 04:41:05;;;;;;;31.13;13.07;;;8.30;97.60;;;;;;5007149;28;20792;-80
2023/01/10 04:43:35;;;;;;;32.60;15.73;;;8.30;97.20;;;;;;5009485;28;20448;-79
2023/01/10 04:46:03;;;;;;;30.07;12.63;;;8.30;97.40;;;;;;5004151;28;20473;-79
2023/01/10 04:48:32;;;;;;;33.90;13.53;;;8.30;97.40;;;;;;5006137;28;20204;-79
2023/01/10 04:51:00;;;;;;;29.70;13.10;;;8.30;97.30;;;;;;5009651;28;20204;-79
2023/01/10 04:53:28;;;;;;;30.40;13.90;;;8.30;97.40;;;;;;5008908;28;20212;-80
2023/01/10 04:56:03;;;;;;;33.67;14.57;;;8.30;97.40;;;;;;5003380;28;20210;-78
2023/01/10 04:58:33;;;;;;;28.63;13.13;;;8.20;97.40;;;;;;5007419;28;20579;-79
2023/01/10 05:01:09;;;;;;;32.70;13.43;;;8.20;97.60;;;;;;5002244;28;20196;-80
2023/01/10 05:03:37;;;;;;;27.27;13.77;;;8.20;97.60;;;;;;5007973;28;20200;-79
2023/01/10 05:06:06;;;;;;;32.70;13.93;;;8.20;97.50;;;;;;5008325;28;20215;-79
2023/01/10 05:08:35;;;;;;;33.70;13.97;;;8.20;97.60;;;;;;5008891;28;20565;-79
2023/01/10 05:11:03;;;;;;;33.60;15.00;;;8.30;97.60;;;;;;5011247;28;20646;-79
2023/01/10 05:13:32;;;;;;;38.07;14.80;;;8.30;97.60;;;;;;5008251;28;20675;-80
2023/01/10 05:16:01;;;;;;;30.83;14.73;;;8.30;97.50;;;;;;5003472;28;20216;-78
2023/01/10 05:18:31;;;;;;;34.30;14.93;;;8.30;97.70;;;;;;5010621;28;20197;-78
2023/01/10 05:21:03;;;;;;;33.60;14.87;;;8.30;98.00;;;;;;5011406;28;20657;-78
2023/01/10 05:23:33;;;;;;;32.80;15.20;;;8.30;97.70;;;;;;5008601;28;20205;-78
2023/01/10 05:26:15;;;;;;;30.83;15.03;;;8.30;97.70;;;;;;5009732;28;21392;-78
2023/01/10 05:28:44;;;;;;;35.20;15.13;;;8.30;97.70;;;;;;5009418;28;20512;-77
2023/01/10 05:31:14;;;;;;;40.13;15.60;;;8.30;97.70;;;;;;5007542;28;20302;-77
2023/01/10 05:34:02;;;;;;;35.07;15.77;;;8.30;97.70;;;;;;5007474;28;20205;-78
2023/01/10 05:36:41;;;;;;;34.70;14.73;;;8.40;97.60;;;;;;5003687;28;20212;-77
2023/01/10 05:39:29;;;;;;;34.30;15.37;;;8.40;97.60;;;;;;5008085;28;20196;-76
2023/01/10 05:42:18;;;;;;;33.43;15.23;;;8.40;97.50;;;;;;5007837;28;20192;-78
2023/01/10 05:44:54;;;;;;;32.70;14.37;;;8.40;97.50;;;;;;5007786;28;20196;-79
2023/01/10 05:47:31;;;;;;;32.20;14.67;;;8.40;97.50;;;;;;4956391;28;20220;-77
2023/01/10 05:50:04;;;;;;;34.93;16.23;;;8.40;97.50;;;;;;4981909;28;20197;-77
2023/01/10 05:52:41;;;;;;;33.87;14.83;;;8.40;97.60;;;;;;4987734;28;20213;-78
2023/01/10 05:55:11;;;;;;;37.43;16.07;;;8.40;97.60;;;;;;4967833;28;20572;-78
2023/01/10 05:57:42;;;;;;;41.63;17.10;;;8.40;97.50;;;;;;4983957;28;20198;-79
2023/01/10 06:00:12;;;;;;;35.33;15.87;;;8.40;97.60;;;;;;4983370;28;20336;-78
2023/01/10 06:02:42;;;;;;;33.30;16.47;;;8.40;97.70;;;;;;4984410;28;20193;-80
2023/01/10 06:05:19;;;;;;;37.23;15.13;;;8.40;97.60;;;;;;4989269;28;20233;-79
2023/01/10 06:07:50;;;;;;;33.37;14.67;;;8.40;97.60;;;;;;4986026;28;20653;-80
2023/01/10 06:10:19;;;;;;;37.47;14.87;;;8.40;97.60;;;;;;4967831;28;20201;-79
2023/01/10 06:12:52;;;;;;;34.10;15.90;;;8.40;97.70;;;;;;4989122;28;20213;-80
2023/01/10 06:15:24;;;;;;;36.33;16.13;;;8.40;97.70;;;;;;4983144;28;20197;-80
2023/01/10 06:18:07;;;;;;;37.67;16.30;;;8.40;97.80;;;;;;4988912;28;20212;-80
2023/01/10 06:20:40;;;;;;;33.20;15.80;;;8.40;97.80;;;;;;4986021;28;20211;-79
2023/01/10 06:23:12;;;;;;;34.70;16.37;;;8.50;97.70;;;;;;4986432;28;20208;-79
2023/01/10 06:25:41;;;;;;;36.53;16.70;;;8.50;97.70;;;;;;4985606;28;20238;-80
2023/01/10 06:28:11;;;;;;;31.20;15.20;;;8.50;97.70;;;;;;4971274;28;20724;-80
2023/01/10 06:30:42;;;;;;;36.73;16.37;;;8.60;97.70;;;;;;4984080;28;20201;-79
2023/01/10 06:33:11;;;;;;;32.90;15.93;;;8.60;97.70;;;;;;4980738;28;20209;-79
2023/01/10 06:35:42;;;;;;;33.07;14.43;;;8.60;97.60;;;;;;4985483;28;20201;-79
2023/01/10 06:38:10;;;;;;;33.20;16.40;;;8.60;97.90;;;;;;4991293;28;20194;-79
2023/01/10 06:40:39;;;;;;;39.13;16.30;;;8.60;97.70;;;;;;4994975;28;20631;-80
2023/01/10 06:43:09;;;;;;;35.90;15.47;;;8.70;97.60;;;;;;4982578;28;20193;-80
2023/01/10 06:45:42;;;;;;;39.07;16.83;;;8.70;97.60;;;;;;4991850;28;20238;-80
2023/01/10 06:48:12;;;;;;;36.30;16.17;;;8.80;97.60;;;;;;5008373;28;20208;-79
2023/01/10 06:50:42;;;;;;;38.53;16.93;;;8.70;97.50;;;;;;5010572;28;20207;-79
2023/01/10 06:53:13;;;;;;;32.90;15.77;;;8.80;97.50;;;;;;5006982;28;20215;-80
2023/01/10 06:55:41;;;;;;;34.83;16.17;;;8.80;97.50;;;;;;4962431;28;20196;-80
2023/01/10 06:58:09;;;;;;;38.03;16.83;;;8.80;97.50;;;;;;5009049;28;20208;-79
2023/01/10 07:00:39;;;;;;;34.07;17.10;;;8.80;97.50;;;;;;5010009;28;20669;-78
2023/01/10 07:03:09;;;;;;;35.57;17.60;;;8.70;97.50;;;;;;5010612;28;20203;-76
2023/01/10 07:05:37;;;;;;;35.73;16.80;;;8.70;97.50;;;;;;5011440;28;20251;-78
2023/01/10 07:08:07;;;;;;;35.63;16.83;;;8.80;97.50;;;;;;5008771;28;20259;-79
2023/01/10 07:10:35;;;;;;;38.97;17.83;;;8.80;97.60;;;;;;5013438;28;20278;-78
2023/01/10 07:13:03;;;;;;;35.23;16.53;;;8.80;98.00;;;;;;5014403;28;20216;-78
2023/01/10 07:15:32;;;;;;;32.93;16.53;;;8.80;97.60;;;;;;5011646;28;20211;-77
2023/01/10 07:18:00;;;;;;;34.10;16.63;;;8.90;97.60;;;;;;5014734;28;20275;-78
2023/01/10 07:20:29;;;;;;;39.67;17.60;;;8.90;97.60;;;;;;5014873;28;20204;-78
2023/01/10 07:22:58;;;;;;;38.00;16.70;;;8.90;97.60;;;;;;5015079;28;20189;-79
2023/01/10 07:25:29;;;;;;;36.47;16.47;;;8.90;97.60;;;;;;5012885;28;20196;-79
2023/01/10 07:27:58;;;;;;;36.17;17.60;;;8.90;97.60;;;;;;5013322;28;20606;-79
2023/01/10 07:30:26;;;;;;;33.70;16.70;;;9.00;97.60;;;;;;5012747;28;20555;-79
2023/01/10 07:32:55;;;;;;;37.20;16.07;;;9.00;97.60;;;;;;5008556;28;20274;-78
2023/01/10 07:35:24;;;;;;;37.03;17.03;;;9.10;97.60;;;;;;5014713;28;20262;-77
2023/01/10 07:37:53;;;;;;;39.70;17.60;;;9.10;97.60;;;;;;5011657;28;20649;-78
2023/01/10 07:40:21;;;;;;;35.23;17.40;;;9.00;97.50;;;;;;5015129;28;20230;-79
2023/01/10 07:42:57;;;;;;;32.43;15.93;;;9.00;97.60;;;;;;5009014;28;20210;-81
2023/01/10 07:45:28;;;;;;;36.97;16.47;;;9.10;97.90;;;;;;5012213;28;20204;-79
2023/01/10 07:47:57;;;;;;;32.97;17.20;;;9.10;97.70;;;;;;5007262;28;20207;-79
2023/01/10 07:50:26;;;;;;;35.57;16.20;;;9.20;97.80;;;;;;5014543;28;20211;-79
2023/01/10 07:53:02;;;;;;;36.93;17.00;;;9.20;97.70;;;;;;5005509;28;20208;-78
2023/01/10 07:55:33;;;;;;;35.73;15.63;;;9.30;97.70;;;;;;5005525;28;22125;-77
2023/01/10 07:58:03;;;;;;;32.57;16.87;;;9.40;97.60;;;;;;5012695;28;20196;-79
2023/01/10 08:00:31;;;;;;;34.53;16.43;;;9.50;97.60;;;;;;5009266;28;20200;-78
2023/01/10 08:03:00;;;;;;;36.07;17.43;;;9.60;97.50;;;;;;5013261;28;20196;-80
2023/01/10 08:05:29;;;;;;;31.70;14.83;;;9.70;97.40;;;;;;5010893;28;20207;-79
2023/01/10 08:07:59;;;;;;;32.93;15.07;;;9.80;97.30;;;;;;5011146;28;20279;-79
2023/01/10 08:10:27;;;;;;;35.90;17.03;;;9.90;97.10;;;;;;5015713;28;20201;-80
2023/01/10 08:12:55;;;;;;;34.20;15.97;;;10.00;97.10;;;;;;5005217;28;20203;-80
2023/01/10 08:15:32;;;;;;;36.47;16.57;;;10.00;96.70;;;;;;5010831;28;20210;-80
2023/01/10 08:18:01;;;;;;;32.23;15.87;;;10.10;96.50;;;;;;5012603;28;20204;-79
2023/01/10 08:20:32;;;;;;;32.17;15.13;;;10.20;96.40;;;;;;5013230;28;20680;-81
2023/01/10 08:23:00;;;;;;;36.23;16.33;;;10.20;96.30;;;;;;5011248;28;20835;-81
2023/01/10 08:25:28;;;;;;;30.80;16.57;;;10.40;96.40;;;;;;5013071;28;20200;-82
2023/01/10 08:27:57;;;;;;;39.53;17.67;;;10.50;96.30;;;;;;5013360;28;20491;-81
2023/01/10 08:30:25;;;;;;;35.77;16.60;;;10.60;96.20;;;;;;5004986;28;20200;-79
2023/01/10 08:32:55;;;;;;;34.17;16.77;;;10.70;95.90;;;;;;5012206;28;20213;-81
2023/01/10 08:35:23;;;;;;;30.47;15.90;;;10.60;95.40;;;;;;5007171;28;20567;-81
2023/01/10 08:37:51;;;;;;;31.10;15.17;;;10.70;95.40;;;;;;5007740;28;20661;-80
2023/01/10 08:40:20;;;;;;;30.13;15.20;;;10.80;95.40;;;;;;5009979;28;20257;-81
2023/01/10 08:42:48;;;;;;;33.43;15.63;;;10.80;95.30;;;;;;5010242;28;20200;-80
2023/01/10 08:45:16;;;;;;;32.77;16.03;;;10.90;95.30;;;;;;5010822;28;20275;-80
2023/01/10 08:47:48;;;;;;;33.87;16.27;;;10.90;95.20;;;;;;5004560;28;20196;-80
2023/01/10 08:50:18;;;;;;;35.17;16.27;;;10.90;95.00;;;;;;5003810;28;20247;-79
2023/01/10 08:52:46;;;;;;;33.90;16.40;;;10.90;95.20;;;;;;5012955;28;20200;-81
2023/01/10 08:55:15;;;;;;;32.40;15.53;;;11.00;95.20;;;;;;5007421;28;20270;-81
2023/01/10 08:57:43;;;;;;;30.87;16.23;;;11.10;95.20;;;;;;5009291;28;20739;-80
2023/01/10 09:00:12;;;;;;;29.53;15.97;;;11.20;95.10;;;;;;5008294;28;20201;-81
2023/01/10 09:02:41;;;;;;;35.10;16.47;;;11.20;95.10;;;;;;5011647;28;20204;-81
2023/01/10 09:05:10;;;;;;;34.03;16.87;;;11.30;95.10;;;;;;5012590;28;20228;-82
2023/01/10 09:07:58;;;;;;;33.63;16.23;;;11.50;95.10;;;;;;5010698;28;20279;-82
2023/01/10 09:10:27;;;;;;;33.53;15.70;;;11.50;94.90;;;;;;5006947;28;20197;-81
2023/01/10 09:12:58;;;;;;;34.23;16.37;;;11.50;94.70;;;;;;5009602;28;20201;-81
2023/01/10 09:15:28;;;;;;;34.30;17.20;;;11.60;94.70;;;;;;5009453;28;20444;-78
2023/01/10 09:17:58;;;;;;;40.00;16.80;;;11.60;94.80;;;;;;5011790;28;20207;-80
2023/01/10 09:20:28;;;;;;;30.93;16.07;;;11.70;94.70;;;;;;5009400;28;20283;-79
2023/01/10 09:23:04;;;;;;;30.87;15.63;;;11.70;94.70;;;;;;5013389;28;20196;-81
2023/01/10 09:25:32;;;;;;;29.00;14.73;;;11.80;94.50;;;;;;5011467;28;20200;-79
2023/01/10 09:28:02;;;;;;;35.00;15.97;;;11.80;94.50;;;;;;5013125;28;20669;-80
2023/01/10 09:30:31;;;;;;;35.77;16.47;;;11.80;94.40;;;;;;5009573;28;20210;-79
2023/01/10 09:32:59;;;;;;;31.47;16.27;;;11.80;94.30;;;;;;5012894;28;20200;-81
2023/01/10 09:35:29;;;;;;;28.33;15.53;;;11.80;94.40;;;;;;5011453;28;20899;-81
2023/01/10 09:38:01;;;;;;;34.63;18.50;;;11.80;94.40;;;;;;5006481;28;20433;-81
2023/01/10 09:40:40;;;;;;;33.70;16.70;;;12.00;94.80;;;;;;5008832;28;20474;-80
2023/01/10 09:43:16;;;;;;;33.73;17.20;;;12.00;94.50;;;;;;4960427;28;20282;-81
2023/01/10 09:45:54;;;;;;;33.20;16.10;;;12.00;94.40;;;;;;5003834;28;20701;-79
2023/01/10 09:48:30;;;;;;;32.73;17.07;;;12.00;94.40;;;;;;5013298;28;20200;-81
2023/01/10 09:51:16;;;;;;;32.13;16.80;;;12.00;94.40;;;;;;5010660;28;20258;-81
2023/01/10 09:53:47;;;;;;;33.60;17.23;;;12.20;94.50;;;;;;5010791;28;20200;-81
2023/01/10 09:56:18;;;;;;;30.90;16.40;;;12.20;94.30;;;;;;5007584;28;20541;-80
2023/01/10 09:58:48;;;;;;;32.30;16.90;;;12.30;94.30;;;;;;5004730;28;20200;-81
2023/01/10 10:01:19;;;;;;;34.13;16.17;;;12.20;94.00;;;;;;5003172;28;20255;-77
2023/01/10 10:03:53;;;;;;;32.40;16.50;;;12.30;94.00;;;;;;5012230;28;20212;-79
2023/01/10 10:06:23;;;;;;;32.90;16.63;;;12.30;94.10;;;;;;5009007;28;20226;-81
2023/01/10 10:08:54;;;;;;;33.30;17.38;;;12.50;94.20;;;;;;5005016;28;20449;-77
2023/01/10 10:11:57;;;;;;;33.13;18.17;;;12.60;94.30;;;;;;5009864;28;20235;-80
2023/01/10 10:14:38;;;;;;;32.70;18.70;;;12.60;94.10;;;;;;5001070;28;20216;-81
2023/01/10 10:17:20;;;;;;;31.90;17.03;;;12.70;94.00;;;;;;5000568;28;20602;-80
2023/01/10 10:20:16;;;;;;;39.03;18.70;;;12.80;94.10;;;;;;5008425;28;20197;-83
2023/01/10 10:22:53;;;;;;;35.97;17.63;;;12.80;94.00;;;;;;5002983;28;20196;-81
2023/01/10 10:25:44;;;;;;;36.83;17.50;;;12.90;94.00;;;;;;5007972;28;20191;-80
2023/01/10 10:28:30;;;;;;;34.13;16.60;;;12.80;93.80;;;;;;5007997;28;20212;-78
2023/01/10 10:31:13;;;;;;;31.23;17.30;;;12.90;93.90;;;;;;5011878;28;20200;-81
2023/01/10 10:33:52;;;;;;;35.83;17.80;;;12.90;93.80;;;;;;5010589;28;20211;-82
2023/01/10 10:36:24;;;;;;;33.00;17.07;;;13.00;93.80;;;;;;5003050;28;20200;-81
2023/01/10 10:39:01;;;;;;;34.77;18.03;;;13.00;93.70;;;;;;5009578;28;20723;-80
2023/01/10 10:41:35;;;;;;;33.73;16.53;;;13.00;93.80;;;;;;5010045;28;20192;-79
2023/01/10 10:44:22;;;;;;;33.73;16.53;;;13.10;93.80;;;;;;5012852;28;20196;-80
2023/01/10 10:46:51;;;;;;;37.55;19.52;;;13.20;93.70;;;;;;5010870;28;20452;-82
2023/01/10 10:49:30;;;;;;;33.70;17.33;;;13.30;93.90;;;;;;5003582;28;20668;-78
2023/01/10 10:52:00;;;;;;;30.87;17.47;;;13.30;93.70;;;;;;5010856;28;20673;-79
2023/01/10 10:54:28;;;;;;;33.17;18.13;;;13.30;93.60;;;;;;5011742;28;20220;-79
2023/01/10 10:56:58;;;;;;;38.13;18.97;;;13.30;93.70;;;;;;5012132;28;20208;-78
2023/01/10 10:59:26;;;;;;;33.00;18.30;;;13.20;93.60;;;;;;5008949;28;20205;-77
2023/01/10 11:01:55;;;;;;;37.20;19.73;;;13.20;93.70;;;;;;5013470;28;20704;-79
2023/01/10 11:04:23;;;;;;;34.87;18.27;;;13.10;93.80;;;;;;5014637;28;20206;-79
2023/01/10 11:06:53;;;;;;;34.97;18.70;;;13.20;93.90;;;;;;5009558;28;20729;-80
2023/01/10 11:09:26;;;;;;;34.93;18.10;;;13.10;94.00;;;;;;5012510;28;20252;-81
2023/01/10 11:11:55;;;;;;;39.67;18.83;;;13.10;94.00;;;;;;5014503;28;20196;-79
2023/01/10 11:14:46;;;;;;;37.97;18.30;;;13.10;94.00;;;;;;5015676;28;20196;-80
2023/01/10 11:17:24;;;;;;;39.77;18.63;;;13.20;94.10;;;;;;5010188;28;20192;-81
2023/01/10 11:20:00;;;;;;;34.90;18.10;;;13.20;94.20;;;;;;5010506;28;20208;-80
2023/01/10 11:22:32;;;;;;;39.20;18.20;;;13.10;94.20;;;;;;5009325;28;20192;-80
2023/01/10 11:25:02;;;;;;;39.80;18.60;;;13.10;94.30;;;;;;5008449;28;20642;-81
2023/01/10 11:27:32;;;;;;;36.40;19.77;;;13.10;94.40;;;;;;5008709;28;20209;-81
2023/01/10 11:30:07;;;;;;;38.90;18.57;;;13.10;94.60;;;;;;5010403;28;20196;-81
2023/01/10 11:32:40;;;;;;;39.83;19.77;;;13.00;94.80;;;;;;5008710;28;20200;-81
2023/01/10 11:35:17;;;;;;;43.33;19.40;;;13.00;94.80;;;;;;5011091;28;20245;-81
2023/01/10 11:37:59;;;;;;;43.35;22.88;;;12.90;95.00;;;;;;5014755;28;20511;-80
2023/01/10 11:40:29;;;;;;;41.67;21.00;;;12.90;95.30;;;;;;5008055;28;20204;-80
2023/01/10 11:42:59;;;;;;;43.03;20.63;;;12.90;95.40;;;;;;5008144;28;20203;-80
2023/01/10 11:45:31;;;;;;;38.13;18.10;;;12.90;95.60;;;;;;5008815;28;20279;-79
2023/01/10 11:48:08;;;;;;;44.47;21.43;;;12.80;95.60;;;;;;5014999;28;20196;-79
2023/01/10 11:50:41;;;;;;;41.00;19.97;;;12.90;95.70;;;;;;5019220;28;20200;-80
2023/01/10 11:53:34;;;;;;;37.57;19.27;;;12.90;95.60;;;;;;5011008;28;20327;-79
2023/01/10 11:56:04;;;;;;;36.27;19.47;;;12.90;95.80;;;;;;5008594;28;20669;-80
2023/01/10 11:58:34;;;;;;;41.53;19.97;;;12.90;95.80;;;;;;5011383;28;20472;-79
2023/01/10 12:01:04;;;;;;;40.20;20.43;;;13.00;95.70;;;;;;5004425;28;20220;-83
2023/01/10 12:03:36;;;;;;;40.03;19.80;;;13.00;95.80;;;;;;5010419;28;20571;-79
2023/01/10 12:06:09;;;;;;;37.20;19.20;;;13.00;95.90;;;;;;5011894;28;20246;-78
2023/01/10 12:08:56;;;;;;;38.27;20.57;;;13.00;95.90;;;;;;5011986;28;20232;-80
2023/01/10 12:11:30;;;;;;;42.30;21.47;;;13.00;96.00;;;;;;5012817;28;20549;-77
2023/01/10 12:14:00;;;;;;;42.53;21.13;;;13.00;96.20;;;;;;5012009;28;20204;-78
2023/01/10 12:16:31;;;;;;;39.13;21.07;;;13.10;96.10;;;;;;5012416;28;20212;-78
2023/01/10 12:19:07;;;;;;;45.57;21.70;;;13.10;96.10;;;;;;5009476;28;20231;-78
2023/01/10 12:21:39;;;;;;;42.07;20.47;;;13.20;96.00;;;;;;5008170;28;20202;-78
2023/01/10 12:24:16;;;;;;;48.55;24.95;;;13.10;96.10;;;;;;5011470;28;20930;-78
2023/01/10 12:26:46;;;;;;;49.00;20.93;;;13.30;96.30;;;;;;5008577;28;20263;-79
2023/01/10 12:29:19;;;;;;;42.73;20.73;;;13.30;96.30;;;;;;5012748;28;20192;-79
2023/01/10 12:31:50;;;;;;;41.73;20.10;;;13.30;96.20;;;;;;5013319;28;20193;-78
2023/01/10 12:34:21;;;;;;;41.67;19.77;;;13.40;96.10;;;;;;5009377;28;20334;-79
2023/01/10 12:36:59;;;;;;;36.97;20.00;;;13.40;96.10;;;;;;5009281;28;20244;-78
2023/01/10 12:39:33;;;;;;;45.20;20.20;;;13.40;96.00;;;;;;5008598;28;20258;-79
2023/01/10 12:45:06;;;;;;;39.23;20.37;;;13.50;95.90;;;;;;5012846;28;20196;-78
2023/01/10 12:47:45;;;;;;;41.53;20.17;;;13.50;95.90;;;;;;5006588;28;20298;-77
2023/01/10 12:50:17;;;;;;;43.50;21.30;;;13.50;95.90;;;;;;5004737;28;20211;-78
2023/01/10 12:52:51;;;;;;;45.83;21.93;;;13.50;95.90;;;;;;5006777;28;20282;-77
2023/01/10 12:55:22;;;;;;;42.57;21.30;;;13.50;95.90;;;;;;5012895;28;20286;-77
2023/01/10 12:57:53;;;;;;;38.20;19.40;;;13.50;96.00;;;;;;5006092;28;20543;-77
2023/01/10 13:00:24;;;;;;;44.07;20.67;;;13.50;96.00;;;;;;5003295;28;20204;-77
2023/01/10 13:02:56;;;;;;;41.57;22.03;;;13.50;96.10;;;;;;5006822;28;20200;-78
2023/01/10 13:05:26;;;;;;;38.40;20.63;;;13.50;96.10;;;;;;5012423;28;20196;-76
2023/01/10 13:08:00;;;;;;;43.37;21.83;;;13.50;96.50;;;;;;5004366;28;20200;-77
2023/01/10 13:10:29;;;;;;;43.00;20.93;;;13.50;96.10;;;;;;5007535;28;20234;-77
2023/01/10 13:13:02;;;;;;;44.10;21.03;;;13.50;96.00;;;;;;5012790;28;20286;-78
2023/01/10 13:15:36;;;;;;;46.60;22.30;;;13.60;96.00;;;;;;5010756;28;20258;-76